Time;durP1;ratioP1;P1;durP2;ratioP2;P2;SDS_P1;SDS_P2;PMS_P1;PMS_P2;Temp;Humidity;BMP_temperature;BMP_pressure;BME280_temperature;BME280_humidity;BME280_pressure;Samples;Min_cycle;Max_cycle;Signal;HPM_P1;HPM_P2
2021/03/21 00:01:33;;;;;;;16.00;12.13;;;;;;;5.03;67.87;100438.75;5011221;28;20041;-70
2021/03/21 00:03:59;;;;;;;23.30;12.93;;;;;;;5.02;67.91;100440.50;5010805;28;20113;-70
2021/03/21 00:06:24;;;;;;;18.77;12.85;;;;;;;4.97;68.77;100441.44;5010171;28;20107;-71
2021/03/21 00:08:49;;;;;;;17.10;13.50;;;;;;;4.94;68.78;100451.03;5009789;28;20037;-70
2021/03/21 00:11:15;;;;;;;18.80;12.70;;;;;;;4.93;69.01;100438.88;5009411;28;20448;-70
2021/03/21 00:13:40;;;;;;;12.98;10.48;;;;;;;4.91;69.39;100437.19;5009724;28;20029;-71
2021/03/21 00:16:07;;;;;;;15.05;11.40;;;;;;;4.82;70.09;100440.78;5009309;28;20030;-70
2021/03/21 00:18:36;;;;;;;47.83;28.85;;;;;;;4.83;70.37;100437.28;5009279;28;20050;-71
2021/03/21 00:21:03;;;;;;;17.45;12.48;;;;;;;4.89;70.09;100431.97;5012209;28;20034;-73
2021/03/21 00:23:28;;;;;;;14.02;11.05;;;;;;;4.92;70.19;100426.72;4993888;28;20059;-71
2021/03/21 00:25:54;;;;;;;19.20;12.13;;;;;;;4.95;69.79;100429.28;5010505;28;20205;-70
2021/03/21 00:28:23;;;;;;;16.77;12.80;;;;;;;4.99;69.79;100424.84;5009114;28;20437;-70
2021/03/21 00:30:50;;;;;;;17.38;11.57;;;;;;;4.92;70.28;100418.88;5009508;28;20431;-71
2021/03/21 00:33:19;;;;;;;19.38;11.82;;;;;;;4.95;69.91;100423.19;5009892;28;20485;-71
2021/03/21 00:35:44;;;;;;;13.95;11.40;;;;;;;4.93;70.25;100422.34;5009435;28;20076;-70
2021/03/21 00:38:23;;;;;;;18.02;12.38;;;;;;;4.93;69.99;100425.81;5010461;28;20149;-71
2021/03/21 00:40:50;;;;;;;16.08;10.98;;;;;;;4.93;70.02;100423.19;5010423;28;20080;-71
2021/03/21 00:43:16;;;;;;;16.42;12.48;;;;;;;4.97;69.91;100413.53;5009344;28;20036;-71
2021/03/21 00:45:42;;;;;;;14.45;11.48;;;;;;;4.97;70.10;100417.91;5010336;28;20034;-70
2021/03/21 00:48:16;;;;;;;15.52;11.60;;;;;;;5.00;69.93;100418.75;5010172;28;20577;-71
2021/03/21 00:50:42;;;;;;;15.20;11.65;;;;;;;4.99;70.38;100410.91;5010036;28;20030;-70
2021/03/21 00:53:08;;;;;;;15.07;12.13;;;;;;;4.93;70.20;100410.13;5010114;28;20040;-70
2021/03/21 00:55:34;;;;;;;17.63;12.23;;;;;;;4.93;69.74;100404.91;5008659;28;20052;-70
2021/03/21 00:58:00;;;;;;;16.13;12.07;;;;;;;4.92;70.32;100403.19;5010128;28;20030;-69
2021/03/21 01:00:31;;;;;;;17.00;11.65;;;;;;;4.94;70.26;100408.38;4990394;28;20560;-70
2021/03/21 01:02:56;;;;;;;15.23;11.70;;;;;;;4.95;70.61;100410.13;4999516;28;20033;-71
2021/03/21 01:05:31;;;;;;;15.18;12.38;;;;;;;4.93;70.91;100412.75;5010883;28;20026;-70
2021/03/21 01:07:58;;;;;;;16.05;11.70;;;;;;;4.84;71.30;100398.97;5012549;28;20030;-70
2021/03/21 01:10:29;;;;;;;13.40;10.90;;;;;;;4.80;71.65;100392.06;5012243;28;20034;-71
2021/03/21 01:12:56;;;;;;;14.35;11.55;;;;;;;4.82;71.58;100388.53;5013909;28;20030;-71
2021/03/21 01:15:23;;;;;;;15.30;11.15;;;;;;;4.88;71.56;100391.06;5010892;28;20038;-70
2021/03/21 01:17:50;;;;;;;17.15;11.13;;;;;;;4.90;71.29;100402.34;5011172;28;20424;-71
2021/03/21 01:20:19;;;;;;;15.40;12.30;;;;;;;4.85;71.87;100395.44;5030318;28;20033;-70
2021/03/21 01:22:45;;;;;;;14.27;11.02;;;;;;;4.87;72.04;100391.97;5040613;28;20037;-72
2021/03/21 01:25:11;;;;;;;16.70;12.82;;;;;;;4.89;72.38;100392.78;5029050;28;20030;-71
2021/03/21 01:27:36;;;;;;;16.83;11.60;;;;;;;4.92;72.25;100389.25;5044424;28;20076;-71
2021/03/21 01:30:03;;;;;;;17.95;12.13;;;;;;;4.89;72.81;100387.53;5028024;28;20483;-71
2021/03/21 01:32:28;;;;;;;22.75;14.85;;;;;;;4.90;73.29;100398.88;5011645;28;20030;-70
2021/03/21 01:34:53;;;;;;;18.80;13.68;;;;;;;4.89;74.28;100386.69;5028045;28;20044;-70
2021/03/21 01:37:18;;;;;;;17.50;13.02;;;;;;;4.90;73.92;100384.06;5045087;28;20171;-70
2021/03/21 01:39:44;;;;;;;21.45;13.52;;;;;;;4.86;73.65;100373.69;5027823;28;20037;-70
2021/03/21 01:42:12;;;;;;;18.45;12.02;;;;;;;4.87;74.46;100364.94;5030681;28;20038;-70
2021/03/21 01:44:38;;;;;;;14.35;11.32;;;;;;;4.83;74.24;100351.09;5031830;28;20040;-70
2021/03/21 01:47:15;;;;;;;17.42;12.70;;;;;;;4.84;74.53;100346.72;5029919;28;20137;-70
2021/03/21 01:49:45;;;;;;;17.90;11.70;;;;;;;4.84;74.42;100334.50;5029944;28;20424;-70
2021/03/21 01:52:25;;;;;;;19.08;12.15;;;;;;;4.84;74.74;100329.28;5030002;28;20416;-71
2021/03/21 01:54:51;;;;;;;19.00;13.50;;;;;;;4.82;74.89;100335.44;5026356;28;20113;-70
2021/03/21 01:57:17;;;;;;;16.38;12.27;;;;;;;4.79;75.24;100328.50;5011836;28;20504;-71
2021/03/21 01:59:43;;;;;;;21.58;11.85;;;;;;;4.80;75.26;100338.09;5044024;28;20037;-71
2021/03/21 02:02:11;;;;;;;17.08;11.77;;;;;;;4.85;74.82;100330.16;5015965;28;20041;-70
2021/03/21 02:04:36;;;;;;;14.38;11.93;;;;;;;4.88;75.09;100328.34;5011911;28;20041;-70
2021/03/21 02:07:39;;;;;;;16.55;11.95;;;;;;;4.88;74.85;100319.66;5028060;28;20508;-70
2021/03/21 02:10:10;;;;;;;16.55;13.00;;;;;;;4.88;74.75;100317.06;5032586;28;20029;-70
2021/03/21 02:12:41;;;;;;;17.75;13.80;;;;;;;4.89;74.88;100313.53;5028824;28;20041;-70
2021/03/21 02:15:25;;;;;;;18.20;13.60;;;;;;;4.85;75.33;100314.47;5028832;28;20094;-69
2021/03/21 02:18:16;;;;;;;20.58;13.63;;;;;;;4.85;74.93;100307.53;4996943;28;20053;-70
2021/03/21 02:21:06;;;;;;;18.13;13.57;;;;;;;4.86;75.30;100306.63;5005082;28;20516;-69
2021/03/21 02:23:53;;;;;;;18.52;15.32;;;;;;;4.87;75.20;100305.75;5033070;28;20044;-71
2021/03/21 02:26:27;;;;;;;16.83;12.63;;;;;;;4.84;75.32;100308.41;5032412;28;20041;-70
2021/03/21 02:28:52;;;;;;;15.68;12.77;;;;;;;4.90;75.17;100295.25;5031890;28;20042;-71
2021/03/21 02:31:28;;;;;;;16.52;13.13;;;;;;;4.86;75.89;100300.53;5033140;28;20036;-70
2021/03/21 02:34:01;;;;;;;14.85;12.23;;;;;;;4.84;76.00;100295.34;4993261;28;20049;-69
2021/03/21 02:36:37;;;;;;;14.02;9.05;;;;;;;4.85;76.11;100304.03;4992944;28;20046;-70
2021/03/21 02:39:26;;;;;;;13.18;10.23;;;;;;;4.82;76.23;100297.09;4992861;28;20041;-71
2021/03/21 02:42:00;;;;;;;11.00;8.90;;;;;;;4.83;76.12;100283.19;4993222;28;20038;-70
2021/03/21 02:44:30;;;;;;;12.50;8.75;;;;;;;4.86;76.12;100279.66;5012952;28;20034;-69
2021/03/21 02:47:07;;;;;;;16.55;9.40;;;;;;;4.91;75.96;100273.44;5033958;28;20034;-69
2021/03/21 02:49:40;;;;;;;13.15;9.93;;;;;;;4.92;76.43;100279.53;5033055;28;20050;-71
2021/03/21 02:52:11;;;;;;;18.25;11.80;;;;;;;4.92;76.39;100269.06;5039922;28;20034;-69
2021/03/21 02:54:43;;;;;;;16.88;11.82;;;;;;;4.81;76.71;100261.44;5032194;28;20068;-69
2021/03/21 02:57:13;;;;;;;15.25;11.85;;;;;;;4.84;76.62;100273.59;5011058;28;20026;-70
2021/03/21 02:59:44;;;;;;;19.77;13.70;;;;;;;4.84;76.35;100256.16;5012776;28;20520;-70
2021/03/21 03:02:20;;;;;;;17.45;13.63;;;;;;;4.87;76.73;100260.44;5036021;28;20033;-70
2021/03/21 03:04:51;;;;;;;22.98;13.02;;;;;;;4.88;75.89;100264.81;5032515;28;20059;-71
2021/03/21 03:07:29;;;;;;;16.75;12.23;;;;;;;4.92;76.33;100269.06;5035545;28;20087;-71
2021/03/21 03:10:04;;;;;;;20.27;14.40;;;;;;;4.93;75.91;100257.75;5051733;28;20025;-70
2021/03/21 03:12:36;;;;;;;22.67;15.65;;;;;;;4.90;75.94;100252.59;5051492;28;20037;-70
2021/03/21 03:15:07;;;;;;;23.98;17.65;;;;;;;4.90;76.02;100245.59;5066778;28;20044;-70
2021/03/21 03:17:39;;;;;;;22.38;15.48;;;;;;;4.89;76.38;100241.25;5066750;28;20147;-71
2021/03/21 03:20:38;;;;;;;22.85;17.85;;;;;;;4.91;75.66;100246.47;5066810;28;20504;-70
2021/03/21 03:23:13;;;;;;;26.00;17.85;;;;;;;4.90;76.35;100242.13;5052409;28;20115;-70
2021/03/21 03:25:45;;;;;;;30.05;19.08;;;;;;;4.78;76.59;100245.81;5051775;28;20048;-70
2021/03/21 03:28:26;;;;;;;31.08;21.75;;;;;;;4.81;76.84;100245.75;5049288;28;20041;-69
2021/03/21 03:31:33;;;;;;;33.00;21.40;;;;;;;4.85;76.54;100236.09;5051969;28;20029;-71
2021/03/21 03:33:58;;;;;;;33.15;22.98;;;;;;;4.81;77.18;100224.00;5041154;28;20040;-71
2021/03/21 03:36:24;;;;;;;44.03;30.08;;;;;;;4.81;77.15;100237.06;5054487;28;20163;-71
2021/03/21 03:38:51;;;;;;;39.88;27.05;;;;;;;4.78;77.81;100235.38;5058172;28;20446;-71
2021/03/21 03:41:50;;;;;;;40.72;26.92;;;;;;;4.72;78.16;100232.88;5057367;28;20033;-71
2021/03/21 03:44:40;;;;;;;39.97;26.63;;;;;;;4.72;78.13;100231.09;5061118;28;20029;-70
2021/03/21 03:47:16;;;;;;;49.53;30.15;;;;;;;4.77;78.24;100238.00;5054676;28;20037;-70
2021/03/21 03:50:15;;;;;;;50.53;32.22;;;;;;;4.72;78.16;100236.31;5046691;28;20033;-70
2021/03/21 03:53:24;;;;;;;38.95;26.60;;;;;;;4.77;78.22;100233.63;5013150;28;20030;-70
2021/03/21 03:55:56;;;;;;;51.10;32.40;;;;;;;4.75;78.76;100227.59;4996715;28;20038;-70
2021/03/21 03:58:25;;;;;;;43.00;29.83;;;;;;;4.75;78.38;100214.56;4989095;28;20529;-70
2021/03/21 04:01:07;;;;;;;47.15;32.75;;;;;;;4.78;78.62;100203.19;4987415;28;20065;-70
2021/03/21 04:03:46;;;;;;;39.35;28.40;;;;;;;4.80;78.71;100212.72;5023448;28;20396;-70
2021/03/21 04:06:19;;;;;;;41.25;28.13;;;;;;;4.80;78.65;100217.94;5050386;28;20057;-71
2021/03/21 04:09:02;;;;;;;47.58;31.58;;;;;;;4.78;78.60;100219.72;5050422;28;20041;-71
2021/03/21 04:11:34;;;;;;;48.42;30.85;;;;;;;4.76;79.01;100216.25;5050554;28;20538;-71
2021/03/21 04:14:21;;;;;;;42.83;29.15;;;;;;;4.79;78.87;100221.41;5050895;28;20388;-72
2021/03/21 04:16:52;;;;;;;48.63;32.13;;;;;;;4.82;78.94;100230.94;5010852;28;20034;-72
2021/03/21 04:19:21;;;;;;;52.80;30.15;;;;;;;4.80;78.64;100228.38;5014776;28;20547;-71
2021/03/21 04:21:54;;;;;;;51.05;30.20;;;;;;;4.81;79.07;100235.31;5010472;28;20038;-71
2021/03/21 04:24:30;;;;;;;47.30;29.10;;;;;;;4.82;79.21;100241.41;5010790;28;20033;-71
2021/03/21 04:27:04;;;;;;;51.28;31.17;;;;;;;4.83;78.85;100241.38;5025305;28;20042;-70
2021/03/21 04:29:43;;;;;;;46.40;29.63;;;;;;;4.71;78.96;100247.69;5010019;28;20037;-70
2021/03/21 04:32:17;;;;;;;54.47;32.05;;;;;;;4.70;79.48;100245.09;5010279;28;20050;-70
2021/03/21 04:34:47;;;;;;;39.85;25.80;;;;;;;4.73;79.76;100242.44;5010835;28;20040;-68
2021/03/21 04:37:14;;;;;;;58.58;32.88;;;;;;;4.75;80.21;100248.50;5008880;28;20042;-69
2021/03/21 04:39:42;;;;;;;49.22;29.75;;;;;;;4.78;79.82;100240.59;5008763;28;20100;-68
2021/03/21 04:42:13;;;;;;;46.75;28.65;;;;;;;4.70;80.09;100250.31;5010257;28;20672;-69
2021/03/21 04:45:13;;;;;;;47.22;28.27;;;;;;;4.71;80.79;100249.44;5009044;28;20129;-69
2021/03/21 04:47:53;;;;;;;50.25;28.00;;;;;;;4.72;80.72;100243.31;5010407;28;20030;-69
2021/03/21 04:50:19;;;;;;;38.35;23.98;;;;;;;4.70;81.01;100237.25;5007902;28;20040;-71
2021/03/21 04:52:53;;;;;;;36.60;25.23;;;;;;;4.65;80.95;100239.09;5013279;28;20033;-69
2021/03/21 04:55:30;;;;;;;32.08;22.02;;;;;;;4.69;80.79;100236.41;5015325;28;20034;-69
2021/03/21 04:57:58;;;;;;;41.17;24.95;;;;;;;4.72;81.05;100240.69;5031313;28;20036;-69
2021/03/21 05:00:38;;;;;;;32.70;20.60;;;;;;;4.72;80.99;100243.31;5030494;28;20099;-69
2021/03/21 05:03:12;;;;;;;37.95;24.33;;;;;;;4.75;80.48;100240.66;5029634;28;20040;-69
2021/03/21 05:05:45;;;;;;;32.05;21.60;;;;;;;4.78;80.60;100229.31;5029678;28;20045;-70
2021/03/21 05:08:17;;;;;;;32.10;23.58;;;;;;;4.78;80.08;100232.78;5029259;28;20049;-71
2021/03/21 05:10:49;;;;;;;33.85;23.98;;;;;;;4.74;80.33;100231.94;5028048;28;20527;-71
2021/03/21 05:13:49;;;;;;;31.45;21.25;;;;;;;4.72;80.78;100227.63;5029524;28;20057;-70
2021/03/21 05:16:37;;;;;;;33.50;22.05;;;;;;;4.77;80.98;100219.72;5028117;28;20037;-70
2021/03/21 05:19:17;;;;;;;38.67;24.30;;;;;;;4.78;80.72;100222.31;5034612;28;20044;-69
2021/03/21 05:21:51;;;;;;;30.83;19.08;;;;;;;4.79;80.74;100221.41;5028063;28;20060;-69
2021/03/21 05:24:25;;;;;;;27.20;19.77;;;;;;;4.80;80.25;100215.31;5029640;28;20120;-69
2021/03/21 05:26:59;;;;;;;26.30;19.08;;;;;;;4.81;80.53;100206.59;5016880;28;20038;-69
2021/03/21 05:29:39;;;;;;;28.45;18.90;;;;;;;4.80;80.30;100202.25;5021593;28;20029;-70
2021/03/21 05:32:06;;;;;;;24.95;17.50;;;;;;;4.82;80.37;100210.91;5029640;28;20091;-70
2021/03/21 05:34:32;;;;;;;22.45;15.88;;;;;;;4.84;80.05;100211.75;5049596;28;20041;-69
2021/03/21 05:37:08;;;;;;;28.65;19.30;;;;;;;4.83;80.32;100211.78;5049276;28;20040;-69
2021/03/21 05:39:58;;;;;;;28.50;19.50;;;;;;;4.80;80.76;100215.31;5049285;28;20056;-70
2021/03/21 05:42:52;;;;;;;24.58;17.35;;;;;;;4.83;80.66;100217.00;5049149;28;20041;-69
2021/03/21 05:45:32;;;;;;;23.63;17.20;;;;;;;4.89;80.38;100203.81;5041590;28;20043;-70
2021/03/21 05:48:16;;;;;;;27.20;18.65;;;;;;;4.94;80.02;100200.22;5048722;28;20527;-69
2021/03/21 05:51:03;;;;;;;24.60;18.05;;;;;;;4.94;80.58;100196.75;5036826;28;20072;-70
2021/03/21 05:54:02;;;;;;;28.90;20.17;;;;;;;4.95;80.62;100207.19;5031322;28;20041;-70
2021/03/21 05:56:57;;;;;;;38.45;23.92;;;;;;;4.91;80.35;100195.06;5016702;28;20038;-71
2021/03/21 05:59:31;;;;;;;34.75;22.05;;;;;;;4.92;80.46;100191.56;5013275;28;20034;-70
2021/03/21 06:02:26;;;;;;;33.28;20.77;;;;;;;4.91;80.71;100195.06;5013686;28;20038;-70
2021/03/21 06:05:10;;;;;;;29.30;21.63;;;;;;;4.98;80.49;100195.81;5017639;28;20038;-70
2021/03/21 06:07:44;;;;;;;33.33;22.15;;;;;;;5.02;80.62;100193.97;5017548;28;20064;-70
2021/03/21 06:10:21;;;;;;;32.63;22.52;;;;;;;5.04;80.25;100184.38;5013757;28;20037;-70
2021/03/21 06:13:20;;;;;;;37.67;23.75;;;;;;;5.04;80.26;100182.59;5013551;28;20062;-70
2021/03/21 06:16:30;;;;;;;40.05;24.15;;;;;;;5.07;80.61;100182.56;5013109;28;20065;-70
2021/03/21 06:19:26;;;;;;;38.88;23.88;;;;;;;5.04;81.02;100189.59;5014029;28;20068;-71
2021/03/21 06:22:23;;;;;;;36.45;23.40;;;;;;;5.06;80.29;100185.19;5028380;28;20048;-71
2021/03/21 06:25:27;;;;;;;32.38;22.13;;;;;;;5.06;80.77;100179.97;5031340;28;20110;-70
2021/03/21 06:28:10;;;;;;;40.78;24.52;;;;;;;5.08;80.75;100171.22;5009653;28;20488;-71
2021/03/21 06:31:01;;;;;;;39.30;24.15;;;;;;;5.12;81.13;100157.19;5032372;28;20057;-70
2021/03/21 06:33:45;;;;;;;51.67;27.58;;;;;;;5.17;80.73;100180.63;5032996;28;20030;-70
2021/03/21 06:36:20;;;;;;;43.85;24.60;;;;;;;5.20;80.83;100187.53;5032158;28;20152;-70
2021/03/21 06:39:11;;;;;;;51.53;28.35;;;;;;;5.24;80.95;100190.06;5032575;28;20048;-70
2021/03/21 06:41:42;;;;;;;52.38;29.55;;;;;;;5.28;80.54;100193.47;5017155;28;20045;-70
2021/03/21 06:44:30;;;;;;;47.08;29.88;;;;;;;5.30;80.84;100196.91;5030889;28;20029;-70
2021/03/21 06:47:13;;;;;;;55.58;33.17;;;;;;;5.34;80.46;100194.22;5032504;28;20033;-70
2021/03/21 06:50:25;;;;;;;63.88;34.50;;;;;;;5.36;80.30;100200.22;5032226;28;20044;-71
2021/03/21 06:53:12;;;;;;;64.90;33.97;;;;;;;5.32;81.05;100206.44;5045798;28;20522;-71
2021/03/21 06:55:43;;;;;;;62.17;33.40;;;;;;;5.23;81.14;100197.94;5051599;28;20570;-70
2021/03/21 06:58:43;;;;;;;58.22;32.47;;;;;;;5.26;81.47;100193.47;5051927;28;20440;-70
2021/03/21 07:01:17;;;;;;;55.53;32.97;;;;;;;5.31;81.42;100207.31;5051359;28;20536;-70
2021/03/21 07:03:49;;;;;;;55.15;32.42;;;;;;;5.34;81.38;100198.56;5044081;28;20044;-70
2021/03/21 07:06:35;;;;;;;63.40;35.90;;;;;;;5.36;81.01;100202.00;5051278;28;20037;-70
2021/03/21 07:09:52;;;;;;;64.97;36.08;;;;;;;5.40;80.92;100198.44;5051058;28;20488;-70
2021/03/21 07:12:34;;;;;;;56.85;31.80;;;;;;;5.42;81.13;100201.88;5051730;28;20041;-70
2021/03/21 07:15:24;;;;;;;53.92;33.60;;;;;;;5.47;81.45;100214.84;5045579;28;20474;-71
2021/03/21 07:20:49;;;;;;;62.88;34.65;;;;;;;5.53;81.04;100219.94;4970804;28;20035;-72
2021/03/21 07:23:39;;;;;;;61.72;34.17;;;;;;;5.51;81.22;100224.34;4992016;28;20078;-73
2021/03/21 07:26:32;;;;;;;64.85;35.83;;;;;;;5.56;80.78;100236.44;4991998;28;20072;-72
2021/03/21 07:29:16;;;;;;;70.43;38.17;;;;;;;5.56;81.16;100236.44;4991439;28;20478;-72
2021/03/21 07:32:16;;;;;;;55.85;32.55;;;;;;;5.58;80.83;100234.63;4991648;28;20038;-71
2021/03/21 07:35:36;;;;;;;55.08;34.00;;;;;;;5.58;80.70;100233.78;4991608;28;20046;-72
2021/03/21 07:38:23;;;;;;;63.63;36.50;;;;;;;5.56;81.02;100246.91;4912480;29;20107;-72
2021/03/21 07:40:52;;;;;;;53.70;31.17;;;;;;;5.59;80.76;100251.22;4991681;28;20057;-72
2021/03/21 07:43:33;;;;;;;55.03;30.33;;;;;;;5.54;80.22;100253.91;4991599;28;20058;-72
2021/03/21 07:46:00;;;;;;;43.97;27.70;;;;;;;5.62;79.65;100248.53;4991508;28;20030;-71
2021/03/21 07:48:54;;;;;;;45.50;27.65;;;;;;;5.70;79.10;100245.75;4991501;28;20054;-72
2021/03/21 07:51:31;;;;;;;61.72;35.15;;;;;;;5.75;78.87;100257.81;4972399;28;20038;-72
2021/03/21 07:54:11;;;;;;;31.10;18.77;;;;;;;5.80;77.21;100242.88;4991667;28;20200;-72
2021/03/21 07:56:45;;;;;;;34.63;20.90;;;;;;;5.86;76.99;100239.28;4991147;28;20121;-73
2021/03/21 07:59:20;;;;;;;37.15;22.42;;;;;;;6.02;76.84;100234.56;4989414;28;20386;-72
2021/03/21 08:01:45;;;;;;;34.22;20.92;;;;;;;6.14;76.04;100247.38;4990888;28;20062;-73
2021/03/21 08:04:19;;;;;;;37.45;24.90;;;;;;;6.19;74.87;100244.66;4991071;28;20504;-73
2021/03/21 08:06:54;;;;;;;34.63;21.98;;;;;;;6.27;75.25;100255.78;4988745;28;20464;-72
2021/03/21 08:09:28;;;;;;;31.27;19.25;;;;;;;6.37;75.02;100262.53;4990275;28;20038;-72
2021/03/21 08:12:23;;;;;;;32.83;20.45;;;;;;;6.38;74.54;100266.03;4964213;28;20054;-74
2021/03/21 08:14:54;;;;;;;33.03;19.77;;;;;;;6.42;74.35;100265.91;4990125;28;20033;-74
2021/03/21 08:17:23;;;;;;;34.03;20.63;;;;;;;6.43;74.18;100272.88;4973654;28;20042;-72
2021/03/21 08:19:52;;;;;;;32.13;20.80;;;;;;;6.42;73.69;100279.00;4985213;28;20062;-72
2021/03/21 08:22:22;;;;;;;32.30;19.55;;;;;;;6.48;73.75;100279.75;4988305;28;20068;-73
2021/03/21 08:24:48;;;;;;;32.17;20.05;;;;;;;6.53;73.91;100272.66;4987243;28;20485;-72
2021/03/21 08:27:31;;;;;;;29.85;19.50;;;;;;;6.54;73.35;100264.72;4990147;28;20140;-72
2021/03/21 08:29:59;;;;;;;28.52;18.23;;;;;;;6.48;72.71;100262.28;4995602;28;20724;-73
2021/03/21 08:32:27;;;;;;;27.80;18.65;;;;;;;6.55;72.68;100261.22;4990131;28;20398;-73
2021/03/21 08:34:53;;;;;;;45.53;30.13;;;;;;;6.68;72.59;100263.53;4990161;28;20121;-73
2021/03/21 08:37:25;;;;;;;25.48;16.33;;;;;;;6.71;71.87;100256.44;4988897;28;20042;-73
2021/03/21 08:40:16;;;;;;;27.77;17.08;;;;;;;6.74;71.51;100265.97;4989587;28;20057;-73
2021/03/21 08:42:47;;;;;;;25.73;16.48;;;;;;;6.74;71.46;100272.06;4988426;28;20043;-74
2021/03/21 08:45:53;;;;;;;23.55;12.77;;;;;;;6.76;72.11;100261.56;4973052;28;20034;-74
2021/03/21 08:48:30;;;;;;;21.00;13.43;;;;;;;6.80;71.29;100257.97;4945661;28;20049;-73
2021/03/21 08:50:59;;;;;;;18.52;12.18;;;;;;;6.92;71.04;100260.28;4993526;28;20062;-73
2021/03/21 08:54:02;;;;;;;24.27;11.65;;;;;;;7.03;70.40;100267.84;4982195;28;20030;-69
2021/03/21 08:56:37;;;;;;;18.77;10.52;;;;;;;7.07;69.84;100253.75;4968427;28;20054;-67
2021/03/21 08:59:05;;;;;;;24.10;10.57;;;;;;;7.01;69.33;100267.00;4967294;28;20031;-69
2021/03/21 09:01:32;;;;;;;15.43;10.65;;;;;;;6.95;69.13;100257.56;4989908;28;20046;-68
2021/03/21 09:04:16;;;;;;;19.77;10.32;;;;;;;7.02;68.22;100269.59;5002491;28;20084;-68
2021/03/21 09:06:44;;;;;;;17.65;9.52;;;;;;;6.99;68.45;100264.47;5007388;28;20038;-67
2021/03/21 09:09:37;;;;;;;17.90;8.98;;;;;;;7.02;68.79;100272.22;4998686;28;20076;-68
2021/03/21 09:12:23;;;;;;;14.25;7.60;;;;;;;7.08;68.40;100266.81;4996762;28;20033;-68
2021/03/21 09:14:51;;;;;;;12.65;7.63;;;;;;;7.14;69.15;100267.53;5009702;28;20045;-69
2021/03/21 09:17:22;;;;;;;14.77;8.30;;;;;;;7.15;69.36;100262.25;5009545;28;20037;-68
2021/03/21 09:19:50;;;;;;;11.23;7.22;;;;;;;7.05;69.22;100266.91;5009059;28;20041;-69
2021/03/21 09:22:28;;;;;;;13.40;7.10;;;;;;;6.93;69.27;100267.22;5009339;28;20029;-68
2021/03/21 09:25:07;;;;;;;21.33;12.60;;;;;;;6.87;69.48;100281.34;5009360;28;20030;-69
2021/03/21 09:27:38;;;;;;;17.90;8.30;;;;;;;6.86;69.88;100289.25;5009095;28;20073;-69
2021/03/21 09:30:21;;;;;;;14.93;8.23;;;;;;;6.85;69.54;100284.94;5009069;28;20030;-67
2021/03/21 09:32:55;;;;;;;13.70;9.05;;;;;;;6.87;69.56;100278.75;5009470;28;20061;-70
2021/03/21 09:35:55;;;;;;;14.27;7.85;;;;;;;6.92;69.37;100280.41;5008820;28;20046;-69
2021/03/21 09:38:30;;;;;;;12.43;7.38;;;;;;;6.97;68.44;100279.38;4996247;28;20113;-69
2021/03/21 09:40:57;;;;;;;;;;;;;;;6.98;66.83;100275.81;5009636;28;20056;-67
2021/03/21 09:43:30;;;;;;;10.50;5.47;;;;;;;7.01;67.40;100261.78;5009311;28;20373;-66
2021/03/21 09:46:30;;;;;;;11.52;4.93;;;;;;;7.09;67.42;100271.16;4991513;28;20034;-68
2021/03/21 09:49:05;;;;;;;9.65;5.18;;;;;;;7.07;66.96;100274.72;5009134;28;20604;-69
2021/03/21 09:51:51;;;;;;;9.15;4.95;;;;;;;7.02;66.95;100277.47;5008445;28;20120;-68
2021/03/21 09:54:28;;;;;;;8.15;5.20;;;;;;;7.11;66.39;100289.47;5009199;28;20034;-68
2021/03/21 09:57:04;;;;;;;9.27;4.93;;;;;;;7.14;65.57;100297.25;5009146;28;20121;-68
2021/03/21 09:59:32;;;;;;;9.23;3.97;;;;;;;7.18;64.67;100293.63;5008984;28;20036;-69
2021/03/21 10:02:23;;;;;;;11.80;4.68;;;;;;;7.37;64.09;100288.75;5009685;28;20110;-68
2021/03/21 10:05:00;;;;;;;7.90;3.55;;;;;;;7.46;62.69;100290.28;5008790;28;20041;-68
2021/03/21 10:07:59;;;;;;;5.82;3.00;;;;;;;7.58;62.22;100294.28;5009053;28;20153;-68
2021/03/21 10:10:37;;;;;;;8.63;3.40;;;;;;;7.59;62.45;100298.66;5004839;28;20030;-68
2021/03/21 10:13:02;;;;;;;7.20;3.53;;;;;;;7.61;62.50;100296.84;5009578;28;20034;-68
2021/03/21 10:15:28;;;;;;;8.25;2.80;;;;;;;7.63;62.64;100311.63;4988181;28;20038;-69
2021/03/21 10:17:57;;;;;;;9.55;4.32;;;;;;;7.66;61.81;100301.06;4984015;28;20034;-69
2021/03/21 10:20:55;;;;;;;8.70;2.88;;;;;;;7.59;61.84;100301.28;4988644;28;20034;-68
2021/03/21 10:23:20;;;;;;;7.82;3.50;;;;;;;7.51;62.04;100298.88;4973132;28;20102;-70
2021/03/21 10:25:46;;;;;;;10.85;3.42;;;;;;;7.57;62.01;100313.56;4978242;28;20050;-67
2021/03/21 10:28:34;;;;;;;8.85;4.55;;;;;;;7.57;60.78;100297.84;4988168;28;20041;-71
2021/03/21 10:31:22;;;;;;;7.43;3.70;;;;;;;7.50;60.93;100297.13;4985061;28;20035;-71
2021/03/21 10:33:50;;;;;;;9.88;3.78;;;;;;;7.57;61.15;100287.34;4969765;28;20546;-71
2021/03/21 10:36:46;;;;;;;11.48;3.47;;;;;;;7.57;59.01;100280.31;4963259;28;20245;-71
2021/03/21 10:39:19;;;;;;;7.72;3.45;;;;;;;7.46;60.16;100288.50;4996066;28;20038;-70
2021/03/21 10:41:53;;;;;;;12.82;3.42;;;;;;;7.45;60.07;100285.91;4979577;28;20050;-71
2021/03/21 10:44:38;;;;;;;9.43;3.65;;;;;;;7.53;59.71;100283.91;4995038;28;20039;-70
2021/03/21 10:47:22;;;;;;;11.07;4.40;;;;;;;7.48;60.19;100285.81;4980277;28;20763;-71
2021/03/21 10:49:52;;;;;;;8.75;3.17;;;;;;;7.51;60.41;100286.59;4971514;28;20406;-71
2021/03/21 10:52:36;;;;;;;11.77;3.35;;;;;;;7.30;60.92;100281.97;4984875;28;20402;-71
2021/03/21 10:55:10;;;;;;;13.70;4.22;;;;;;;7.23;60.53;100289.13;4987390;28;20096;-70
2021/03/21 10:57:42;;;;;;;7.97;3.33;;;;;;;7.22;60.62;100292.66;4982632;28;20069;-71
2021/03/21 11:00:15;;;;;;;13.85;4.28;;;;;;;7.22;61.07;100299.69;4986572;28;20038;-71
2021/03/21 11:02:49;;;;;;;11.93;4.50;;;;;;;7.30;61.31;100301.16;4987017;28;20096;-70
2021/03/21 11:05:29;;;;;;;10.45;3.42;;;;;;;7.42;60.52;100299.97;4987231;28;20121;-72
2021/03/21 11:08:13;;;;;;;9.13;3.38;;;;;;;7.59;59.81;100298.66;4981899;28;20113;-71
2021/03/21 11:10:40;;;;;;;11.50;4.25;;;;;;;7.73;58.13;100296.50;4965094;28;20054;-72
2021/03/21 11:13:06;;;;;;;15.77;6.28;;;;;;;7.85;58.39;100293.50;4951939;28;20557;-70
2021/03/21 11:15:39;;;;;;;17.52;4.72;;;;;;;8.02;57.70;100292.97;4949012;28;20050;-71
2021/03/21 11:18:19;;;;;;;9.95;3.83;;;;;;;8.33;56.60;100292.88;4967672;28;20089;-71
2021/03/21 11:20:45;;;;;;;13.88;3.55;;;;;;;8.66;55.67;100289.22;4971541;28;20129;-71
2021/03/21 11:23:22;;;;;;;19.58;5.85;;;;;;;8.79;54.21;100291.41;4960433;28;20038;-70
2021/03/21 11:25:48;;;;;;;15.35;4.22;;;;;;;8.81;53.41;100286.97;4978168;28;20717;-71
2021/03/21 11:28:25;;;;;;;14.02;4.35;;;;;;;8.89;53.27;100280.59;4973759;28;20168;-71
2021/03/21 11:30:58;;;;;;;19.13;4.15;;;;;;;8.86;52.77;100271.03;4975884;28;20044;-70
2021/03/21 11:33:45;;;;;;;9.30;3.97;;;;;;;8.98;52.77;100278.50;4976568;28;20049;-72
2021/03/21 11:36:23;;;;;;;12.18;3.10;;;;;;;8.84;51.99;100285.16;4978046;28;20049;-70
2021/03/21 11:38:50;;;;;;;12.10;3.53;;;;;;;8.86;52.20;100283.31;4968067;28;20130;-70
2021/03/21 11:41:28;;;;;;;12.73;3.72;;;;;;;8.89;52.48;100291.09;4971521;28;20510;-70
2021/03/21 11:44:15;;;;;;;17.15;4.32;;;;;;;8.81;52.15;100278.19;4977127;28;20042;-69
2021/03/21 11:46:40;;;;;;;14.23;4.75;;;;;;;8.79;52.53;100285.31;4965120;28;20078;-69
2021/03/21 11:49:07;;;;;;;12.48;3.55;;;;;;;8.72;53.28;100292.53;4966791;28;20569;-70
2021/03/21 11:51:33;;;;;;;14.93;3.60;;;;;;;8.69;53.46;100297.91;4965360;28;20042;-70
2021/03/21 11:53:59;;;;;;;17.58;4.70;;;;;;;8.50;53.07;100284.50;4972315;28;20513;-69
2021/03/21 11:56:53;;;;;;;14.32;5.07;;;;;;;8.51;53.82;100274.84;4957454;28;20058;-69
2021/03/21 11:59:23;;;;;;;23.05;6.97;;;;;;;8.70;54.37;100277.72;4981643;28;20398;-71
2021/03/21 12:01:57;;;;;;;17.58;4.70;;;;;;;8.69;52.94;100282.13;4987951;28;20416;-70
2021/03/21 12:04:49;;;;;;;18.33;5.85;;;;;;;8.68;53.06;100277.75;4988440;28;20056;-74
2021/03/21 12:07:28;;;;;;;13.10;4.90;;;;;;;8.68;53.50;100277.75;4978164;28;20034;-71